Time;durP1;ratioP1;P1;durP2;ratioP2;P2;SDS_P1;SDS_P2;PMS_P1;PMS_P2;Temp;Humidity;BMP_temperature;BMP_pressure;BME280_temperature;BME280_humidity;BME280_pressure;Samples;Min_cycle;Max_cycle;Signal;HPM_P1;HPM_P2
2021/01/10 00:05:33;;;;;;;0.70;0.70;;;7.40;99.90;;;;;;5041940;28;20225;-96
2021/01/10 00:08:05;;;;;;;3.03;1.97;;;7.40;99.90;;;;;;5047768;28;20213;-96
2021/01/10 00:10:37;;;;;;;1.63;1.40;;;7.30;99.90;;;;;;5049322;28;20678;-96
2021/01/10 00:13:09;;;;;;;1.13;0.97;;;7.30;99.90;;;;;;5049781;28;20267;-95
2021/01/10 00:15:41;;;;;;;1.10;1.00;;;7.20;99.90;;;;;;5049365;28;20220;-94
2021/01/10 00:18:14;;;;;;;1.40;1.00;;;7.20;99.90;;;;;;5058344;28;20862;-94
2021/01/10 00:20:48;;;;;;;1.30;0.90;;;7.10;99.90;;;;;;5057968;28;20247;-95
2021/01/10 00:23:19;;;;;;;0.87;0.70;;;7.10;99.90;;;;;;5039864;28;20267;-95
2021/01/10 00:25:51;;;;;;;1.67;0.70;;;7.10;99.90;;;;;;5031052;28;20225;-95
2021/01/10 00:28:23;;;;;;;1.00;0.60;;;7.10;99.90;;;;;;5032855;28;20206;-96
2021/01/10 00:30:58;;;;;;;0.80;0.80;;;7.00;99.90;;;;;;5037480;28;20193;-96
2021/01/10 01:03:04;;;;;;;9.97;5.13;;;6.60;99.90;;;;;;5007062;28;20218;-95
2021/01/10 01:05:39;;;;;;;6.13;4.80;;;6.50;99.90;;;;;;5010104;28;20679;-96
2021/01/10 01:08:14;;;;;;;9.80;5.13;;;6.50;99.90;;;;;;5010631;28;20213;-96
2021/01/10 01:10:46;;;;;;;9.83;5.37;;;6.50;99.90;;;;;;5009154;28;20238;-95
2021/01/10 01:13:23;;;;;;;4.47;3.47;;;6.50;99.90;;;;;;5008676;28;20199;-95
2021/01/10 01:15:58;;;;;;;7.23;3.60;;;6.50;99.90;;;;;;5006566;28;20202;-96
2021/01/10 01:18:33;;;;;;;5.07;3.33;;;6.50;99.90;;;;;;5001697;28;20234;-96
2021/01/10 01:21:08;;;;;;;4.50;2.50;;;6.50;99.90;;;;;;4993169;28;20202;-96
2021/01/10 01:23:40;;;;;;;3.07;2.47;;;6.50;99.90;;;;;;5010983;28;20204;-97
2021/01/10 01:29:11;;;;;;;5.00;3.10;;;6.50;99.90;;;;;;4996458;28;21653;-96
2021/01/10 01:31:43;;;;;;;3.07;2.47;;;6.50;99.90;;;;;;5010395;28;20252;-96
2021/01/10 01:37:02;;;;;;;4.47;3.47;;;6.50;99.90;;;;;;5510173;23;20314;-96
2021/01/10 01:42:19;;;;;;;3.60;3.10;;;6.50;99.90;;;;;;5487622;23;20278;-96
2021/01/10 01:44:51;;;;;;;4.70;3.40;;;6.50;99.90;;;;;;5016587;28;20265;-96
2021/01/10 01:47:24;;;;;;;4.20;2.90;;;6.50;99.90;;;;;;5003671;28;20204;-96
2021/01/10 01:49:56;;;;;;;5.20;3.60;;;6.50;99.90;;;;;;4312036;28;10000594;-94
2021/01/10 01:52:29;;;;;;;7.47;5.07;;;6.60;99.90;;;;;;4996348;28;20576;-92
2021/01/10 01:55:13;;;;;;;9.53;5.60;;;6.50;99.90;;;;;;4994694;28;20233;-89
2021/01/10 01:57:44;;;;;;;7.50;4.30;;;6.50;99.90;;;;;;4991065;28;20203;-90
2021/01/10 02:00:17;;;;;;;6.23;4.03;;;6.50;99.90;;;;;;4994240;28;20343;-91
2021/01/10 02:02:49;;;;;;;4.37;3.17;;;6.50;99.90;;;;;;4985876;28;20207;-89
2021/01/10 02:05:27;;;;;;;5.27;3.73;;;6.50;99.90;;;;;;4988839;28;20205;-89
2021/01/10 02:08:05;;;;;;;5.70;4.07;;;6.50;99.90;;;;;;5007650;28;20221;-92
2021/01/10 02:10:41;;;;;;;6.83;4.50;;;6.50;99.90;;;;;;4985350;28;20232;-91
2021/01/10 02:13:17;;;;;;;6.03;3.53;;;6.40;99.90;;;;;;4990435;28;20238;-94
2021/01/10 02:15:54;;;;;;;6.10;3.80;;;6.40;99.90;;;;;;4999104;28;20200;-95
2021/01/10 02:18:29;;;;;;;3.83;3.10;;;6.40;99.90;;;;;;4997136;28;20206;-92
2021/01/10 02:21:07;;;;;;;5.53;3.00;;;6.50;99.90;;;;;;4985839;28;20219;-89
2021/01/10 02:23:50;;;;;;;3.40;2.97;;;6.50;99.90;;;;;;4987622;28;20210;-89
2021/01/10 02:26:27;;;;;;;4.40;2.63;;;6.40;99.90;;;;;;5005660;28;20209;-88
2021/01/10 02:28:59;;;;;;;5.57;2.70;;;6.40;99.90;;;;;;5003089;28;20211;-89
2021/01/10 02:31:33;;;;;;;3.77;2.50;;;6.50;99.90;;;;;;4988882;28;20324;-87
2021/01/10 02:34:06;;;;;;;4.07;3.27;;;6.40;99.90;;;;;;5008807;28;20296;-88
2021/01/10 02:36:53;;;;;;;4.10;3.50;;;6.40;99.90;;;;;;4980826;28;20560;-89
2021/01/10 02:39:32;;;;;;;3.90;3.10;;;6.30;99.90;;;;;;4972392;28;20229;-91
2021/01/10 02:42:17;;;;;;;4.87;3.80;;;6.20;99.90;;;;;;4988660;28;20223;-91
2021/01/10 02:44:54;;;;;;;5.23;3.80;;;6.30;99.90;;;;;;4983179;28;20227;-91
2021/01/10 02:47:29;;;;;;;5.30;3.33;;;6.30;99.90;;;;;;4983755;28;20283;-94
2021/01/10 02:50:01;;;;;;;3.00;2.60;;;6.20;99.90;;;;;;4984549;28;20214;-92
2021/01/10 02:52:32;;;;;;;3.83;3.37;;;6.20;99.90;;;;;;4976116;28;20243;-92
2021/01/10 02:55:06;;;;;;;4.90;2.67;;;6.20;99.90;;;;;;4965407;28;20208;-93
2021/01/10 02:57:41;;;;;;;3.20;2.60;;;6.10;99.90;;;;;;4967094;28;20272;-92
2021/01/10 03:00:13;;;;;;;3.73;2.43;;;6.10;99.90;;;;;;4976819;28;20269;-93
2021/01/10 03:02:49;;;;;;;3.83;2.50;;;6.10;99.90;;;;;;4979457;28;20230;-92
2021/01/10 03:05:22;;;;;;;2.30;2.03;;;6.20;99.90;;;;;;4981681;28;20211;-91
2021/01/10 03:07:56;;;;;;;2.83;2.20;;;6.20;99.90;;;;;;4977579;28;20253;-92
2021/01/10 03:10:29;;;;;;;2.43;1.50;;;6.20;99.90;;;;;;4971878;28;20270;-94
2021/01/10 03:13:42;;;;;;;2.87;1.40;;;6.30;99.90;;;;;;4969493;28;20245;-95
2021/01/10 03:16:17;;;;;;;2.73;1.53;;;6.40;99.90;;;;;;4979070;28;20220;-92
2021/01/10 03:21:35;;;;;;;1.87;1.27;;;6.40;99.90;;;;;;4976632;28;20222;-94
2021/01/10 03:24:09;;;;;;;2.27;1.43;;;6.40;99.90;;;;;;4982152;28;20215;-92
2021/01/10 03:26:42;;;;;;;1.87;1.33;;;6.40;99.90;;;;;;4984751;28;20230;-92
2021/01/10 03:29:19;;;;;;;2.07;1.40;;;6.50;99.90;;;;;;4981922;28;20283;-96
2021/01/10 03:35:02;;;;;;;1.53;1.20;;;6.50;99.90;;;;;;4983165;28;20362;-93
2021/01/10 03:37:34;;;;;;;1.60;1.20;;;6.50;99.90;;;;;;4987205;28;20229;-93
2021/01/10 03:40:12;;;;;;;1.57;1.10;;;6.50;99.90;;;;;;4982837;28;20269;-94
2021/01/10 03:42:44;;;;;;;3.67;1.10;;;6.60;99.90;;;;;;4979005;28;20221;-93
2021/01/10 03:45:22;;;;;;;1.40;1.20;;;6.50;99.90;;;;;;4972709;28;20214;-95
2021/01/10 03:47:54;;;;;;;2.00;1.27;;;6.50;99.90;;;;;;4976639;28;20231;-94
2021/01/10 03:50:30;;;;;;;1.90;1.50;;;6.50;99.90;;;;;;4980995;28;20308;-93
2021/01/10 03:53:01;;;;;;;2.20;1.60;;;6.50;99.90;;;;;;4985466;28;20238;-92
2021/01/10 03:58:39;;;;;;;1.70;1.30;;;6.30;99.90;;;;;;4998917;28;20218;-94
2021/01/10 04:01:12;;;;;;;2.20;1.23;;;6.30;99.90;;;;;;4983872;28;20215;-92
2021/01/10 04:03:46;;;;;;;1.70;1.10;;;6.20;99.90;;;;;;4991515;28;20204;-94
2021/01/10 04:06:20;;;;;;;1.87;1.50;;;6.20;99.90;;;;;;4992956;28;20230;-93
2021/01/10 04:08:56;;;;;;;1.80;1.30;;;6.20;99.90;;;;;;4978235;28;20215;-94
2021/01/10 04:11:36;;;;;;;2.57;1.33;;;6.10;99.90;;;;;;4999786;28;20199;-96
2021/01/10 04:14:14;;;;;;;2.00;1.00;;;6.10;99.90;;;;;;4995076;28;20215;-95
2021/01/10 04:16:53;;;;;;;1.20;1.00;;;6.10;99.90;;;;;;4982790;28;20216;-95
2021/01/10 04:19:29;;;;;;;1.90;1.20;;;6.10;99.90;;;;;;4988109;28;20201;-93
2021/01/10 04:22:01;;;;;;;3.63;1.40;;;6.10;99.90;;;;;;4994651;28;20281;-91
2021/01/10 04:27:25;;;;;;;1.90;1.17;;;6.10;99.90;;;;;;4985056;28;20211;-94
2021/01/10 04:29:57;;;;;;;1.67;1.10;;;6.20;99.90;;;;;;4982247;28;20202;-92
2021/01/10 04:32:36;;;;;;;2.73;1.50;;;6.30;99.90;;;;;;4982817;28;20254;-93
2021/01/10 04:35:14;;;;;;;1.60;1.33;;;6.30;99.90;;;;;;4979226;28;20226;-93
2021/01/10 04:41:00;;;;;;;2.40;1.10;;;6.50;99.90;;;;;;4982935;28;20213;-94
2021/01/10 04:43:32;;;;;;;1.20;1.00;;;6.60;99.90;;;;;;4974603;28;20210;-94
2021/01/10 04:46:17;;;;;;;1.87;1.00;;;6.60;99.90;;;;;;4983456;28;20199;-93
2021/01/10 04:48:52;;;;;;;3.10;1.20;;;6.60;99.90;;;;;;4985476;28;20338;-93
2021/01/10 04:51:30;;;;;;;1.23;0.80;;;6.60;99.90;;;;;;4988429;28;20211;-93
2021/01/10 04:57:43;;;;;;;1.07;1.00;;;6.60;99.90;;;;;;4970473;28;20207;-94
2021/01/10 05:07:11;;;;;;;0.87;0.80;;;6.60;99.90;;;;;;5538099;23;20239;-92
2021/01/10 05:09:46;;;;;;;0.87;0.70;;;6.70;99.90;;;;;;4994893;28;20202;-93
2021/01/10 05:12:17;;;;;;;0.87;0.60;;;6.70;99.90;;;;;;4993039;28;20230;-93
2021/01/10 05:14:49;;;;;;;0.50;0.50;;;6.70;99.90;;;;;;4992953;28;20577;-95
2021/01/10 05:17:24;;;;;;;0.67;0.60;;;6.70;99.90;;;;;;4991344;28;20199;-94
2021/01/10 05:22:33;;;;;;;1.07;0.70;;;6.80;99.90;;;;;;4662674;28;10001143;-92
2021/01/10 05:25:14;;;;;;;0.83;0.53;;;6.90;99.90;;;;;;5017941;28;20635;-91
2021/01/10 05:27:50;;;;;;;0.70;0.60;;;7.00;99.90;;;;;;5031617;28;20199;-93
2021/01/10 05:30:30;;;;;;;0.93;0.50;;;6.90;99.90;;;;;;5013995;28;20662;-94
2021/01/10 05:33:03;;;;;;;0.77;0.50;;;7.00;99.90;;;;;;5012457;28;20246;-91
2021/01/10 05:35:50;;;;;;;0.50;0.50;;;7.00;99.90;;;;;;4998565;28;20679;-91
2021/01/10 05:38:36;;;;;;;0.77;0.43;;;6.90;99.90;;;;;;4998648;28;20210;-91
2021/01/10 05:41:13;;;;;;;0.60;0.50;;;6.80;99.90;;;;;;4995876;28;20206;-90
2021/01/10 05:44:02;;;;;;;1.07;0.60;;;6.80;99.90;;;;;;5004044;28;20258;-91
2021/01/10 05:58:16;;;;;;;0.60;0.47;;;6.90;99.90;;;;;;5001055;28;20206;-93
2021/01/10 06:00:53;;;;;;;2.00;0.50;;;6.90;99.90;;;;;;5000689;28;20289;-96
2021/01/10 06:03:33;;;;;;;0.73;0.60;;;6.80;99.90;;;;;;4999566;28;20203;-92
2021/01/10 06:06:07;;;;;;;0.50;0.47;;;6.70;99.90;;;;;;5003399;28;20211;-89
2021/01/10 06:08:59;;;;;;;1.53;0.40;;;6.60;99.90;;;;;;5001790;28;20218;-89
2021/01/10 06:11:45;;;;;;;0.40;0.30;;;6.70;99.90;;;;;;4995441;28;20215;-88
2021/01/10 06:14:23;;;;;;;0.47;0.47;;;6.70;99.90;;;;;;5000882;28;20206;-87
2021/01/10 06:16:59;;;;;;;0.50;0.40;;;6.70;99.90;;;;;;4996351;28;20301;-89
2021/01/10 06:19:31;;;;;;;0.63;0.50;;;6.70;99.90;;;;;;5003852;28;20194;-90
2021/01/10 06:22:07;;;;;;;0.97;0.50;;;6.70;99.90;;;;;;5004907;28;20222;-87
2021/01/10 06:24:46;;;;;;;0.50;0.50;;;6.80;99.90;;;;;;5012366;28;20202;-88
2021/01/10 06:27:27;;;;;;;1.90;0.80;;;6.90;99.90;;;;;;5008625;28;20213;-88
2021/01/10 06:30:01;;;;;;;3.97;2.23;;;6.80;99.90;;;;;;5005053;28;20198;-93
2021/01/10 06:32:35;;;;;;;3.30;2.20;;;6.80;99.90;;;;;;5014623;28;20230;-94
2021/01/10 06:44:51;;;;;;;6.17;2.93;;;6.20;99.90;;;;;;5000667;28;20203;-90
2021/01/10 06:47:37;;;;;;;6.60;3.13;;;6.10;99.90;;;;;;5000240;28;20222;-90
2021/01/10 06:52:59;;;;;;;4.90;2.80;;;6.00;99.90;;;;;;5002126;28;20257;-96
2021/01/10 06:55:35;;;;;;;3.00;2.57;;;5.90;99.90;;;;;;5004732;28;20245;-94
2021/01/10 06:58:11;;;;;;;3.10;2.43;;;5.80;99.90;;;;;;4994909;28;20205;-94
2021/01/10 07:00:55;;;;;;;3.43;2.63;;;5.80;99.90;;;;;;4997202;28;20209;-95
2021/01/10 07:03:28;;;;;;;3.93;2.70;;;5.80;99.90;;;;;;5009246;28;20281;-96
2021/01/10 07:06:10;;;;;;;5.27;2.73;;;5.80;99.90;;;;;;5007955;28;20230;-95
2021/01/10 07:08:46;;;;;;;4.43;2.77;;;5.70;99.90;;;;;;4998803;28;20249;-95
2021/01/10 07:11:36;;;;;;;5.23;3.10;;;5.70;99.90;;;;;;5007245;28;20351;-95
2021/01/10 07:14:26;;;;;;;2.93;2.40;;;5.60;99.90;;;;;;5009993;28;20371;-95
2021/01/10 07:17:18;;;;;;;4.60;3.10;;;5.60;99.90;;;;;;5002544;28;20238;-95
2021/01/10 07:19:58;;;;;;;3.60;2.43;;;5.60;99.90;;;;;;5007519;28;20222;-94
2021/01/10 07:22:36;;;;;;;4.33;2.80;;;5.50;99.90;;;;;;5011681;28;20217;-95
2021/01/10 07:25:37;;;;;;;4.87;3.00;;;5.50;99.90;;;;;;5014785;28;20178;-91
2021/01/10 07:28:43;;;;;;;4.40;2.80;;;5.40;99.90;;;;;;5016314;28;20229;-95
2021/01/10 07:34:15;;;;;;;5.17;3.47;;;5.30;99.90;;;;;;4999649;28;20205;-94
2021/01/10 07:37:05;;;;;;;6.87;3.63;;;5.30;99.90;;;;;;5007854;28;20250;-95
2021/01/10 07:39:38;;;;;;;4.93;3.70;;;5.40;99.90;;;;;;5004899;28;20190;-93
2021/01/10 07:42:28;;;;;;;4.63;3.60;;;5.40;99.90;;;;;;5001732;28;20211;-96
2021/01/10 07:45:17;;;;;;;5.57;4.00;;;5.40;99.90;;;;;;5001320;28;20249;-95
2021/01/10 07:47:51;;;;;;;7.73;3.70;;;5.40;99.90;;;;;;4993231;28;20722;-95
2021/01/10 07:50:25;;;;;;;3.67;2.90;;;5.40;99.90;;;;;;4999783;28;20209;-95
2021/01/10 07:53:00;;;;;;;4.87;2.90;;;5.50;99.90;;;;;;5004765;28;20317;-94
2021/01/10 07:55:33;;;;;;;3.00;2.33;;;5.60;99.90;;;;;;5006599;28;20197;-96
2021/01/10 07:58:21;;;;;;;4.17;2.73;;;5.70;99.90;;;;;;5006944;28;20208;-95
2021/01/10 08:00:55;;;;;;;5.40;2.50;;;5.80;99.90;;;;;;4996842;28;20237;-95
2021/01/10 08:03:28;;;;;;;6.60;2.60;;;5.80;99.90;;;;;;5011992;28;20237;-95
2021/01/10 08:06:04;;;;;;;2.67;2.07;;;5.80;99.90;;;;;;5009430;28;20194;-94
2021/01/10 08:08:49;;;;;;;3.10;2.13;;;5.90;99.90;;;;;;5007077;28;20214;-92
2021/01/10 08:11:37;;;;;;;3.53;2.57;;;5.90;99.90;;;;;;5014139;28;20210;-96
2021/01/10 08:14:16;;;;;;;4.50;2.50;;;6.00;99.90;;;;;;4998170;28;20231;-95
2021/01/10 08:16:54;;;;;;;3.77;2.50;;;6.00;99.90;;;;;;5003878;28;20198;-96
2021/01/10 08:19:29;;;;;;;4.93;2.63;;;6.00;99.90;;;;;;5017973;28;20190;-95
2021/01/10 08:22:06;;;;;;;3.20;2.50;;;6.10;99.90;;;;;;5018709;28;20222;-95
2021/01/10 08:24:44;;;;;;;4.67;2.57;;;6.10;99.90;;;;;;5015877;28;20252;-96
2021/01/10 08:27:20;;;;;;;4.13;2.87;;;6.20;99.90;;;;;;5016732;28;20222;-95
2021/01/10 08:29:52;;;;;;;3.70;2.70;;;6.20;99.90;;;;;;5028849;28;20213;-95
2021/01/10 08:32:26;;;;;;;3.93;2.17;;;6.10;99.90;;;;;;5035863;28;20236;-95
2021/01/10 08:35:01;;;;;;;4.80;2.60;;;6.10;99.90;;;;;;5001778;28;20217;-95
2021/01/10 08:37:33;;;;;;;4.70;2.57;;;6.00;99.90;;;;;;5020978;28;20197;-94
2021/01/10 08:40:09;;;;;;;2.97;2.40;;;6.00;99.90;;;;;;5003035;28;20198;-95
2021/01/10 08:42:41;;;;;;;4.30;3.00;;;6.00;99.90;;;;;;5010084;28;20221;-95
2021/01/10 08:45:21;;;;;;;3.37;2.50;;;6.10;99.90;;;;;;5012520;28;20218;-94
2021/01/10 08:47:53;;;;;;;2.70;2.20;;;6.10;99.90;;;;;;5010946;28;20206;-94
2021/01/10 08:50:26;;;;;;;3.43;2.60;;;6.10;99.90;;;;;;5001139;28;20257;-95
2021/01/10 08:53:01;;;;;;;3.60;2.60;;;6.10;99.90;;;;;;4995744;28;20227;-94
2021/01/10 08:55:39;;;;;;;4.63;2.50;;;6.10;99.90;;;;;;4989247;28;20211;-95
2021/01/10 08:58:13;;;;;;;4.40;2.70;;;6.20;99.90;;;;;;4996783;28;20206;-96
2021/01/10 09:00:45;;;;;;;4.50;2.77;;;6.20;99.90;;;;;;4992337;28;20223;-94
2021/01/10 09:03:23;;;;;;;3.07;2.33;;;6.30;99.90;;;;;;5008524;28;20210;-95
2021/01/10 09:05:57;;;;;;;3.53;2.30;;;6.30;99.90;;;;;;5007833;28;20233;-93
2021/01/10 09:08:37;;;;;;;2.80;2.20;;;6.30;99.90;;;;;;5008736;28;20206;-94
2021/01/10 09:11:15;;;;;;;2.53;2.20;;;6.30;99.90;;;;;;5006139;28;20203;-94
2021/01/10 09:13:50;;;;;;;4.00;2.10;;;6.30;99.90;;;;;;5002423;28;20234;-95
2021/01/10 09:16:25;;;;;;;2.70;2.10;;;6.30;99.90;;;;;;5009930;28;20276;-94
2021/01/10 09:19:00;;;;;;;5.10;2.00;;;6.40;99.90;;;;;;5007735;28;20206;-94
2021/01/10 09:21:31;;;;;;;6.13;2.50;;;6.40;99.90;;;;;;5009089;28;20272;-94
2021/01/10 09:24:04;;;;;;;2.73;1.57;;;6.40;99.90;;;;;;5011794;28;20203;-95
2021/01/10 09:26:37;;;;;;;2.10;1.90;;;6.50;99.90;;;;;;5008886;28;20210;-96
2021/01/10 09:29:21;;;;;;;2.87;1.73;;;6.50;99.90;;;;;;5001976;28;20579;-95
2021/01/10 09:31:54;;;;;;;1.43;1.10;;;6.60;99.90;;;;;;5006929;28;20639;-96
2021/01/10 09:34:27;;;;;;;1.93;1.43;;;6.70;99.90;;;;;;5002506;28;20286;-95
2021/01/10 09:37:06;;;;;;;3.50;1.63;;;7.00;99.90;;;;;;5007582;28;20278;-96
2021/01/10 09:39:42;;;;;;;2.53;1.50;;;6.90;99.90;;;;;;5003549;28;20233;-96
2021/01/10 09:42:19;;;;;;;2.03;1.20;;;6.80;99.90;;;;;;5007084;28;20220;-96
2021/01/10 09:44:57;;;;;;;1.83;1.43;;;6.80;99.90;;;;;;5012257;28;20276;-95
2021/01/10 09:47:38;;;;;;;2.23;1.30;;;6.70;99.90;;;;;;5014826;28;20210;-96
2021/01/10 09:50:14;;;;;;;2.13;1.40;;;6.70;99.90;;;;;;5008656;28;20338;-95
2021/01/10 09:52:49;;;;;;;2.40;1.47;;;6.60;99.90;;;;;;5006899;28;20233;-93
2021/01/10 09:55:24;;;;;;;2.17;1.63;;;6.60;99.90;;;;;;5000989;28;20254;-95
2021/01/10 09:58:33;;;;;;;2.37;1.67;;;6.50;99.90;;;;;;4985882;28;20201;-96
2021/01/10 10:01:08;;;;;;;2.27;1.60;;;6.40;99.90;;;;;;5002990;28;20213;-94
2021/01/10 10:03:49;;;;;;;2.53;1.50;;;6.30;99.90;;;;;;4995804;28;20275;-95
2021/01/10 10:06:21;;;;;;;1.87;1.60;;;6.30;99.90;;;;;;5003302;28;20222;-95
2021/01/10 10:08:57;;;;;;;3.20;1.77;;;6.20;99.90;;;;;;5001892;28;20199;-94
2021/01/10 10:11:28;;;;;;;2.80;1.87;;;6.10;99.90;;;;;;5007171;28;20202;-94
2021/01/10 10:14:02;;;;;;;1.83;1.63;;;6.10;99.90;;;;;;4999467;28;20246;-94
2021/01/10 10:16:35;;;;;;;1.93;1.73;;;6.00;99.90;;;;;;4998395;28;20522;-94
2021/01/10 10:19:07;;;;;;;3.53;2.00;;;6.00;99.90;;;;;;4990380;28;20220;-96
2021/01/10 10:21:49;;;;;;;2.57;1.87;;;5.90;99.90;;;;;;4998290;28;20225;-93
2021/01/10 10:24:21;;;;;;;4.03;1.63;;;5.90;99.90;;;;;;5000717;28;20206;-94
2021/01/10 10:26:53;;;;;;;2.63;1.67;;;5.80;99.90;;;;;;5004417;28;20210;-96
2021/01/10 10:29:25;;;;;;;2.33;1.47;;;5.80;99.90;;;;;;4993872;28;20230;-95
2021/01/10 10:31:57;;;;;;;1.90;1.60;;;5.80;99.90;;;;;;4994327;28;20226;-95
2021/01/10 10:34:29;;;;;;;2.23;1.43;;;5.80;99.90;;;;;;5001356;28;20239;-96
2021/01/10 10:37:01;;;;;;;3.33;1.70;;;5.80;99.90;;;;;;4997237;28;20210;-96
2021/01/10 10:39:33;;;;;;;2.07;1.30;;;5.80;99.90;;;;;;4995343;28;20298;-95
2021/01/10 10:42:05;;;;;;;2.07;1.40;;;5.80;99.90;;;;;;4995919;28;20236;-95
2021/01/10 10:44:38;;;;;;;1.93;1.67;;;5.80;99.90;;;;;;4996787;28;20221;-96
2021/01/10 10:47:14;;;;;;;1.97;1.37;;;5.70;99.90;;;;;;4996840;28;20237;-95
2021/01/10 10:49:47;;;;;;;3.97;1.60;;;5.70;99.90;;;;;;5000267;28;20274;-96
2021/01/10 10:52:20;;;;;;;3.57;1.57;;;5.70;99.90;;;;;;4993588;28;20203;-96
2021/01/10 10:54:51;;;;;;;1.73;1.40;;;5.80;99.90;;;;;;4987067;28;20601;-95
2021/01/10 10:57:22;;;;;;;2.37;1.10;;;5.80;99.90;;;;;;4995710;28;20203;-93
2021/01/10 10:59:57;;;;;;;4.10;1.53;;;5.70;99.90;;;;;;4999900;28;20657;-95
2021/01/10 11:02:35;;;;;;;2.97;1.50;;;5.80;99.90;;;;;;4995863;28;20237;-94
2021/01/10 11:05:08;;;;;;;2.93;1.33;;;5.80;99.90;;;;;;5004545;28;20256;-96
2021/01/10 11:07:39;;;;;;;2.63;1.63;;;5.80;99.90;;;;;;4996265;28;20286;-95
2021/01/10 11:10:12;;;;;;;1.87;1.53;;;5.80;99.90;;;;;;4997403;28;20215;-95
2021/01/10 11:12:44;;;;;;;2.03;1.47;;;5.70;99.90;;;;;;4996728;28;20236;-95
2021/01/10 11:15:18;;;;;;;2.07;1.53;;;5.70;99.90;;;;;;4997393;28;20207;-94
2021/01/10 11:17:51;;;;;;;2.97;1.80;;;5.70;99.90;;;;;;5001515;28;20272;-95
2021/01/10 11:20:23;;;;;;;2.93;1.70;;;5.80;99.90;;;;;;5000335;28;20205;-94
2021/01/10 11:23:05;;;;;;;3.27;2.00;;;5.70;99.90;;;;;;5003742;28;20683;-95
2021/01/10 11:25:39;;;;;;;2.97;2.17;;;5.70;99.90;;;;;;4995723;28;20217;-94
2021/01/10 11:28:11;;;;;;;3.30;2.40;;;5.70;99.90;;;;;;5003168;28;20230;-94
2021/01/10 11:30:44;;;;;;;5.90;2.93;;;5.70;99.90;;;;;;4996382;28;20242;-93
2021/01/10 11:33:16;;;;;;;3.30;2.63;;;5.70;99.90;;;;;;4988896;28;20297;-95
2021/01/10 11:35:47;;;;;;;3.67;2.90;;;5.60;99.90;;;;;;4998568;28;20218;-95
2021/01/10 11:38:20;;;;;;;4.50;3.10;;;5.60;99.90;;;;;;5002231;28;20226;-95
2021/01/10 11:40:52;;;;;;;3.73;2.87;;;5.70;99.90;;;;;;5005692;28;20217;-95
2021/01/10 11:43:24;;;;;;;4.83;2.93;;;5.70;99.90;;;;;;4995587;28;20215;-95
2021/01/10 11:45:58;;;;;;;4.10;2.97;;;5.70;99.90;;;;;;4999181;28;20293;-96
2021/01/10 11:48:35;;;;;;;5.83;3.07;;;5.80;99.90;;;;;;4997065;28;20230;-96
2021/01/10 11:51:09;;;;;;;4.20;2.90;;;5.70;99.90;;;;;;5001455;28;20361;-96
2021/01/10 11:53:49;;;;;;;4.90;2.83;;;5.80;99.90;;;;;;5004118;28;20259;-96
2021/01/10 11:56:22;;;;;;;5.07;2.90;;;5.70;99.90;;;;;;5008171;28;20205;-96
2021/01/10 11:58:55;;;;;;;4.40;2.83;;;5.80;99.90;;;;;;5004684;28;20238;-95
2021/01/10 12:01:35;;;;;;;4.37;2.90;;;5.70;99.90;;;;;;5010539;28;20757;-95
2021/01/10 12:04:15;;;;;;;4.07;2.70;;;5.80;99.90;;;;;;4993373;28;20207;-96
2021/01/10 12:06:50;;;;;;;3.20;2.60;;;5.80;99.90;;;;;;5015350;28;20198;-96
2021/01/10 12:09:22;;;;;;;4.30;2.67;;;5.70;99.90;;;;;;5013240;28;20277;-95
2021/01/10 12:11:53;;;;;;;3.50;2.57;;;5.70;99.90;;;;;;5011336;28;20229;-96
2021/01/10 12:17:13;;;;;;;2.97;2.20;;;5.60;99.90;;;;;;5006405;28;20215;-94
2021/01/10 12:19:45;;;;;;;2.87;2.20;;;5.60;99.90;;;;;;5011676;28;20190;-94
2021/01/10 12:22:20;;;;;;;4.17;2.23;;;5.70;99.90;;;;;;5008836;28;20191;-92
2021/01/10 12:24:52;;;;;;;2.20;2.00;;;5.70;99.90;;;;;;5011902;28;20206;-92
2021/01/10 12:27:23;;;;;;;1.63;1.47;;;5.80;99.90;;;;;;5016086;28;20313;-94
2021/01/10 12:29:54;;;;;;;3.50;2.10;;;5.90;99.90;;;;;;5006016;28;20226;-95
2021/01/10 12:32:33;;;;;;;1.53;1.43;;;5.90;99.90;;;;;;4992831;28;20221;-94
2021/01/10 12:35:05;;;;;;;2.53;1.60;;;5.90;99.90;;;;;;5004447;28;20234;-94
2021/01/10 12:37:37;;;;;;;2.00;1.37;;;5.90;99.90;;;;;;4999406;28;20203;-94
2021/01/10 12:40:11;;;;;;;1.80;1.57;;;5.90;99.90;;;;;;4996815;28;20195;-94
2021/01/10 12:42:43;;;;;;;2.20;1.50;;;5.90;99.90;;;;;;5008169;28;20207;-93
2021/01/10 12:45:15;;;;;;;2.13;1.47;;;5.90;99.90;;;;;;5001260;28;20261;-95
2021/01/10 12:47:49;;;;;;;2.07;1.63;;;5.90;99.90;;;;;;4998421;28;20595;-95
2021/01/10 12:50:21;;;;;;;1.50;1.40;;;5.90;99.90;;;;;;4996801;28;20230;-95
2021/01/10 12:52:52;;;;;;;1.77;1.50;;;5.90;99.90;;;;;;4999395;28;20218;-95
2021/01/10 12:55:23;;;;;;;2.37;1.30;;;5.90;99.90;;;;;;4998008;28;20280;-95
2021/01/10 12:57:55;;;;;;;2.03;1.30;;;5.90;99.90;;;;;;4998424;28;20210;-94
2021/01/10 13:00:29;;;;;;;2.10;1.50;;;5.90;99.90;;;;;;5000948;28;20209;-95
2021/01/10 13:03:06;;;;;;;3.23;1.90;;;5.90;99.90;;;;;;5001820;28;20205;-96
2021/01/10 13:05:41;;;;;;;2.03;1.50;;;5.90;99.90;;;;;;4998001;28;20203;-95
2021/01/10 13:08:15;;;;;;;2.37;1.50;;;5.80;99.90;;;;;;5002421;28;20201;-96
2021/01/10 13:11:01;;;;;;;2.73;1.70;;;5.80;99.90;;;;;;5008113;28;20206;-96
2021/01/10 13:13:34;;;;;;;1.63;1.33;;;5.90;99.90;;;;;;5003548;28;20233;-95
2021/01/10 13:19:16;;;;;;;2.43;1.50;;;5.80;99.90;;;;;;5013313;28;20230;-95
2021/01/10 13:21:49;;;;;;;2.77;1.53;;;5.80;99.90;;;;;;5005841;28;20214;-95
2021/01/10 13:24:20;;;;;;;3.03;1.60;;;5.80;99.90;;;;;;5007307;28;20214;-95
2021/01/10 13:26:55;;;;;;;2.60;1.70;;;5.70;99.90;;;;;;5013171;28;20203;-94
2021/01/10 13:29:43;;;;;;;2.20;1.63;;;5.70;99.90;;;;;;5004618;28;20221;-95
2021/01/10 13:32:21;;;;;;;2.70;1.50;;;5.80;99.90;;;;;;5004393;28;20206;-94
2021/01/10 13:35:04;;;;;;;2.63;1.20;;;5.80;99.90;;;;;;5004339;28;20318;-96
2021/01/10 13:37:54;;;;;;;1.83;1.27;;;5.70;99.90;;;;;;5006053;28;20220;-95
2021/01/10 13:40:42;;;;;;;2.50;1.40;;;5.60;99.90;;;;;;5011858;28;20210;-95
2021/01/10 13:43:13;;;;;;;1.53;1.30;;;5.60;99.90;;;;;;5007412;28;20210;-96
2021/01/10 13:45:47;;;;;;;2.17;1.40;;;5.60;99.90;;;;;;5006880;28;20206;-96
2021/01/10 13:48:20;;;;;;;3.40;1.47;;;5.70;99.90;;;;;;5005208;28;20253;-96
2021/01/10 13:50:57;;;;;;;3.03;1.53;;;5.70;99.90;;;;;;5010327;28;20208;-96
2021/01/10 13:53:32;;;;;;;2.63;1.50;;;5.70;99.90;;;;;;5010720;28;20229;-96
2021/01/10 13:56:06;;;;;;;2.67;1.70;;;5.80;99.90;;;;;;5012622;28;20272;-96
2021/01/10 13:58:44;;;;;;;1.73;1.50;;;5.80;99.90;;;;;;5007394;28;20205;-96
2021/01/10 14:01:56;;;;;;;1.90;1.70;;;5.80;99.90;;;;;;5019716;28;20218;-96
2021/01/10 14:04:40;;;;;;;2.20;1.90;;;5.80;99.90;;;;;;5015271;28;20196;-95
2021/01/10 14:07:13;;;;;;;2.03;1.63;;;5.80;99.90;;;;;;5012949;28;20178;-95
2021/01/10 14:09:45;;;;;;;2.70;2.00;;;5.90;99.90;;;;;;5008645;28;20210;-96
2021/01/10 14:12:17;;;;;;;3.03;1.70;;;5.80;99.90;;;;;;5009954;28;20187;-96
2021/01/10 14:14:49;;;;;;;4.80;2.03;;;5.80;99.90;;;;;;5015129;28;20234;-95
2021/01/10 14:17:20;;;;;;;2.63;1.80;;;5.80;99.90;;;;;;5007104;28;20252;-92
2021/01/10 14:19:52;;;;;;;3.17;2.20;;;5.70;99.90;;;;;;5006662;28;20237;-95
2021/01/10 14:22:25;;;;;;;3.37;2.20;;;5.70;99.90;;;;;;5017645;28;20213;-94
2021/01/10 14:28:04;;;;;;;3.90;2.53;;;5.70;99.90;;;;;;5276129;23;20844;-95
2021/01/10 14:30:45;;;;;;;3.30;2.37;;;5.70;99.90;;;;;;5021341;28;20262;-97
2021/01/10 14:33:18;;;;;;;2.30;2.03;;;5.70;99.90;;;;;;5022789;28;20217;-95
2021/01/10 14:35:49;;;;;;;3.67;2.30;;;5.70;99.90;;;;;;5020347;28;20206;-96
2021/01/10 14:38:27;;;;;;;4.80;3.00;;;5.60;99.90;;;;;;5025806;28;20193;-95
2021/01/10 14:41:05;;;;;;;4.13;2.57;;;5.60;99.90;;;;;;5028333;28;20225;-96
2021/01/10 14:43:41;;;;;;;3.53;2.40;;;5.60;99.90;;;;;;5028216;28;20194;-95
2021/01/10 14:46:13;;;;;;;4.63;2.87;;;5.60;99.90;;;;;;5027583;28;20209;-95
2021/01/10 14:48:48;;;;;;;3.30;2.60;;;5.60;99.90;;;;;;5017690;28;20289;-95
2021/01/10 14:51:29;;;;;;;4.60;2.90;;;5.60;99.90;;;;;;5020831;28;20240;-95
2021/01/10 14:54:18;;;;;;;5.00;3.27;;;5.60;99.90;;;;;;5014791;28;20244;-96
2021/01/10 14:56:54;;;;;;;5.10;3.20;;;5.60;99.90;;;;;;5019884;28;20215;-95
2021/01/10 14:59:34;;;;;;;4.33;3.27;;;5.50;99.90;;;;;;5018838;28;20202;-96
2021/01/10 15:02:11;;;;;;;6.20;3.40;;;5.60;99.90;;;;;;5019753;28;20194;-95
2021/01/10 15:04:45;;;;;;;5.83;3.87;;;5.50;99.90;;;;;;5015053;28;20210;-94
2021/01/10 15:07:19;;;;;;;6.90;3.73;;;5.50;99.90;;;;;;5019823;28;20212;-95
2021/01/10 15:09:53;;;;;;;7.93;3.90;;;5.60;99.90;;;;;;5015730;28;20232;-95
2021/01/10 15:12:24;;;;;;;5.00;3.23;;;5.60;99.90;;;;;;5004547;28;20271;-95
2021/01/10 15:14:57;;;;;;;4.03;3.33;;;5.60;99.90;;;;;;5005132;28;20246;-95
2021/01/10 15:17:30;;;;;;;4.83;3.20;;;5.60;99.90;;;;;;5009108;28;20396;-96
2021/01/10 15:20:01;;;;;;;4.27;3.20;;;5.60;99.90;;;;;;5013375;28;20206;-95
2021/01/10 15:22:32;;;;;;;6.23;3.13;;;5.70;99.90;;;;;;5019115;28;22044;-96
2021/01/10 15:25:04;;;;;;;4.20;2.67;;;5.70;99.90;;;;;;5016863;28;20201;-96
2021/01/10 15:27:35;;;;;;;4.50;2.90;;;5.70;99.90;;;;;;5019229;28;20229;-95
2021/01/10 15:30:07;;;;;;;5.97;3.23;;;5.70;99.90;;;;;;5008230;28;20222;-96